createdAt,value
2018-11-21T00:00:39.522Z,2.33333333333
2018-11-21T00:01:49.772Z,2.27777777778
2018-11-21T00:02:59.891Z,2.27777777778
2018-11-21T00:04:10.130Z,2.27777777778
2018-11-21T00:05:20.253Z,2.27777777778
2018-11-21T00:06:30.599Z,2.27777777778
2018-11-21T00:07:40.841Z,2.27777777778
2018-11-21T00:08:51.024Z,2.27777777778
2018-11-21T00:10:01.209Z,2.27777777778
2018-11-21T00:11:11.363Z,2.33333333333
2018-11-21T00:12:21.502Z,2.33333333333
2018-11-21T00:13:31.702Z,2.27777777778
2018-11-21T00:14:41.780Z,2.27777777778
2018-11-21T00:15:51.979Z,2.27777777778
2018-11-21T00:17:02.132Z,2.27777777778
2018-11-21T00:18:12.166Z,2.27777777778
2018-11-21T00:19:22.237Z,2.22222222222
2018-11-21T00:20:32.415Z,2.27777777778
2018-11-21T00:21:42.547Z,2.27777777778
2018-11-21T00:22:52.745Z,2.27777777778
2018-11-21T00:24:02.989Z,2.22222222222
2018-11-21T00:25:13.593Z,2.22222222222
2018-11-21T00:26:23.784Z,2.22222222222
2018-11-21T00:27:33.895Z,2.22222222222
2018-11-21T00:28:43.941Z,2.22222222222
2018-11-21T00:29:54.189Z,2.22222222222
2018-11-21T00:31:04.253Z,2.22222222222
2018-11-21T00:32:14.489Z,2.22222222222
2018-11-21T00:33:24.695Z,2.22222222222
2018-11-21T00:34:35.065Z,2.22222222222
2018-11-21T00:35:45.172Z,2.22222222222
2018-11-21T00:36:55.453Z,2.22222222222
2018-11-21T00:38:05.569Z,2.22222222222
2018-11-21T00:39:15.682Z,2.22222222222
2018-11-21T00:40:25.733Z,2.22222222222
2018-11-21T00:41:35.792Z,2.16666666667
2018-11-21T00:42:46.796Z,2.16666666667
2018-11-21T00:43:07.911Z,2.16666666667
2018-11-21T00:44:10.652Z,2.16666666667
2018-11-21T00:44:33.664Z,2.16666666667
2018-11-21T00:45:09.344Z,2.16666666667
2018-11-21T00:46:10.645Z,2.16666666667
2018-11-21T00:47:20.838Z,2.16666666667
2018-11-21T00:48:30.920Z,2.16666666667
2018-11-21T00:49:41.065Z,2.16666666667
2018-11-21T00:50:51.184Z,2.16666666667
2018-11-21T00:52:01.580Z,2.11111111111
2018-11-21T00:53:11.624Z,2.16666666667
2018-11-21T00:54:21.697Z,2.11111111111
2018-11-21T00:55:32.140Z,2.11111111111
2018-11-21T00:56:42.355Z,2.11111111111
2018-11-21T00:57:52.584Z,2.11111111111
2018-11-21T00:59:02.661Z,2.11111111111
2018-11-21T01:00:12.759Z,2.11111111111
2018-11-21T01:01:22.912Z,2.11111111111
2018-11-21T01:02:33.209Z,2.11111111111
2018-11-21T01:03:43.338Z,2.11111111111
2018-11-21T01:04:53.630Z,2.05555555556
2018-11-21T01:06:03.885Z,2.11111111111
2018-11-21T01:07:14.110Z,2.11111111111
2018-11-21T01:08:24.239Z,2.11111111111
2018-11-21T01:09:34.521Z,2.11111111111
2018-11-21T01:10:44.727Z,2.05555555556
2018-11-21T01:11:54.792Z,2.05555555556
2018-11-21T01:13:04.898Z,2.05555555556
2018-11-21T01:14:15.206Z,2.11111111111
2018-11-21T01:15:25.411Z,2.05555555556
2018-11-21T01:16:35.503Z,2.11111111111
2018-11-21T01:17:45.729Z,2.11111111111
2018-11-21T01:18:55.879Z,2.05555555556
2018-11-21T01:20:06.036Z,2.05555555556
2018-11-21T01:21:16.188Z,2.05555555556
2018-11-21T01:22:26.332Z,2.05555555556
2018-11-21T01:23:36.563Z,2
2018-11-21T01:24:46.619Z,2.05555555556
2018-11-21T01:25:56.811Z,2
2018-11-21T01:27:07.136Z,2.05555555556
2018-11-21T01:28:17.201Z,2
2018-11-21T01:29:27.332Z,2
2018-11-21T01:30:37.522Z,2
2018-11-21T01:31:47.785Z,2
2018-11-21T01:32:58.010Z,2
2018-11-21T01:34:08.087Z,2
2018-11-21T01:35:18.331Z,2
2018-11-21T01:36:28.421Z,2
2018-11-21T01:37:38.758Z,2
2018-11-21T01:38:48.891Z,2
2018-11-21T01:39:58.933Z,2
2018-11-21T01:41:09.039Z,2
2018-11-21T01:42:19.274Z,1.94444444444
2018-11-21T01:43:29.413Z,2
2018-11-21T01:44:39.545Z,2
2018-11-21T01:45:49.709Z,2
2018-11-21T01:46:59.805Z,2
2018-11-21T01:48:09.980Z,2
2018-11-21T01:49:20.235Z,1.94444444444
2018-11-21T01:50:30.455Z,1.94444444444
2018-11-21T01:51:40.510Z,2
2018-11-21T01:52:50.781Z,1.94444444444
2018-11-21T01:54:00.855Z,1.94444444444
2018-11-21T01:55:10.940Z,1.94444444444
2018-11-21T01:56:21.090Z,1.94444444444
2018-11-21T01:57:31.244Z,1.94444444444
2018-11-21T01:58:41.401Z,1.94444444444
2018-11-21T01:59:51.521Z,1.94444444444
2018-11-21T02:01:01.780Z,2
2018-11-21T02:02:12.102Z,2
2018-11-21T02:03:22.362Z,1.94444444444
2018-11-21T02:04:32.424Z,1.94444444444
2018-11-21T02:05:42.645Z,1.94444444444
2018-11-21T02:06:52.825Z,1.94444444444
2018-11-21T02:08:03.311Z,1.94444444444
2018-11-21T02:09:13.623Z,1.94444444444
2018-11-21T02:10:23.744Z,1.94444444444
2018-11-21T02:11:33.775Z,1.94444444444
2018-11-21T02:12:43.909Z,1.94444444444
2018-11-21T02:13:54.001Z,1.94444444444
2018-11-21T02:15:04.146Z,1.94444444444
2018-11-21T02:16:14.220Z,1.94444444444
2018-11-21T02:17:24.473Z,1.94444444444
2018-11-21T02:18:34.553Z,1.94444444444
2018-11-21T02:19:44.638Z,1.94444444444
2018-11-21T02:20:54.800Z,1.88888888889
2018-11-21T02:22:05.098Z,1.88888888889
2018-11-21T02:23:15.232Z,1.88888888889
2018-11-21T02:24:25.300Z,1.88888888889
2018-11-21T02:25:35.615Z,1.83333333333
2018-11-21T02:26:46.005Z,1.83333333333
2018-11-21T02:27:56.081Z,1.83333333333
2018-11-21T02:29:06.322Z,1.83333333333
2018-11-21T02:30:16.536Z,1.83333333333
2018-11-21T02:31:26.712Z,1.83333333333
2018-11-21T02:32:36.856Z,1.83333333333
2018-11-21T02:33:46.936Z,1.83333333333
2018-11-21T02:34:57.164Z,1.83333333333
2018-11-21T02:36:07.238Z,1.83333333333
2018-11-21T02:37:17.393Z,1.77777777778
2018-11-21T02:38:27.590Z,1.83333333333
2018-11-21T02:39:37.835Z,1.83333333333
2018-11-21T02:40:48.014Z,1.77777777778
2018-11-21T02:41:58.129Z,1.77777777778
2018-11-21T02:43:08.207Z,1.77777777778
2018-11-21T02:44:18.285Z,1.77777777778
2018-11-21T02:45:28.412Z,1.77777777778
2018-11-21T02:46:38.681Z,1.83333333333
2018-11-21T02:47:48.920Z,1.77777777778
2018-11-21T02:48:59.127Z,1.77777777778
2018-11-21T02:50:09.273Z,1.77777777778
2018-11-21T02:51:19.411Z,1.77777777778
2018-11-21T02:52:29.587Z,1.77777777778
2018-11-21T02:53:39.806Z,1.77777777778
2018-11-21T02:54:49.882Z,1.77777777778
2018-11-21T02:56:00.066Z,1.77777777778
2018-11-21T02:57:10.112Z,1.77777777778
2018-11-21T02:58:20.208Z,1.77777777778
2018-11-21T02:59:30.315Z,1.77777777778
2018-11-21T03:00:40.703Z,1.77777777778
2018-11-21T03:01:50.868Z,1.77777777778
2018-11-21T03:03:01.005Z,1.77777777778
2018-11-21T03:04:11.113Z,1.77777777778
2018-11-21T03:05:21.269Z,1.77777777778
2018-11-21T03:06:31.436Z,1.77777777778
2018-11-21T03:07:41.691Z,1.77777777778
2018-11-21T03:08:51.979Z,1.77777777778
2018-11-21T03:10:02.213Z,1.77777777778
2018-11-21T03:11:12.305Z,1.72222222222
2018-11-21T03:12:22.570Z,1.77777777778
2018-11-21T03:13:32.659Z,1.77777777778
2018-11-21T03:14:42.778Z,1.77777777778
2018-11-21T03:15:53.012Z,1.77777777778
2018-11-21T03:17:03.190Z,1.72222222222
2018-11-21T03:18:13.381Z,1.72222222222
2018-11-21T03:19:23.524Z,1.72222222222
2018-11-21T03:20:33.729Z,1.72222222222
2018-11-21T03:21:43.781Z,1.72222222222
2018-11-21T03:22:54.096Z,1.72222222222
2018-11-21T03:24:04.257Z,1.72222222222
2018-11-21T03:25:14.367Z,1.72222222222
2018-11-21T03:26:24.493Z,1.77777777778
2018-11-21T03:27:34.691Z,1.72222222222
2018-11-21T03:28:44.773Z,1.77777777778
2018-11-21T03:29:54.844Z,1.72222222222
2018-11-21T03:31:05.071Z,1.72222222222
2018-11-21T03:32:15.215Z,1.72222222222
2018-11-21T03:33:25.316Z,1.66666666667
2018-11-21T03:34:35.383Z,1.72222222222
2018-11-21T03:35:46.004Z,1.72222222222
2018-11-21T03:36:56.193Z,1.72222222222
2018-11-21T03:38:06.310Z,1.66666666667
2018-11-21T03:39:16.943Z,1.66666666667
2018-11-21T03:40:27.009Z,1.66666666667
2018-11-21T03:41:37.390Z,1.66666666667
2018-11-21T03:42:47.555Z,1.66666666667
2018-11-21T03:43:57.672Z,1.66666666667
2018-11-21T03:45:07.763Z,1.66666666667
2018-11-21T03:51:28.767Z,1.61111111111
2018-11-21T03:54:08.684Z,1.66666666667
2018-11-21T03:56:48.347Z,1.66666666667
2018-11-21T03:59:28.460Z,1.66666666667
2018-11-21T04:02:08.492Z,1.66666666667
2018-11-21T04:04:48.422Z,1.61111111111
2018-11-21T04:07:28.725Z,1.61111111111
2018-11-21T04:10:08.655Z,1.66666666667
2018-11-21T04:12:48.267Z,1.61111111111
2018-11-21T04:15:27.947Z,1.61111111111
2018-11-21T04:19:08.845Z,1.61111111111
2018-11-21T04:21:48.687Z,1.55555555556
2018-11-21T04:24:28.605Z,1.55555555556
2018-11-21T04:27:08.278Z,1.5
2018-11-21T04:29:47.810Z,1.5
2018-11-21T04:32:27.908Z,1.55555555556
2018-11-21T04:35:07.944Z,1.55555555556
2018-11-21T04:37:48.287Z,1.5
2018-11-21T04:40:28.006Z,1.55555555556
2018-11-21T04:43:07.906Z,1.55555555556
2018-11-21T04:46:35.020Z,1.55555555556
2018-11-21T04:46:57.906Z,1.55555555556
2018-11-21T04:47:33.566Z,1.55555555556
2018-11-21T04:48:34.812Z,1.55555555556
2018-11-21T04:49:44.908Z,1.55555555556
2018-11-21T04:50:55.155Z,1.55555555556
2018-11-21T04:52:05.326Z,1.55555555556
2018-11-21T04:53:15.381Z,1.55555555556
2018-11-21T04:54:25.554Z,1.55555555556
2018-11-21T04:55:35.788Z,1.55555555556
2018-11-21T04:56:45.810Z,1.55555555556
2018-11-21T04:57:56.159Z,1.5
2018-11-21T04:59:06.164Z,1.55555555556
2018-11-21T05:00:16.314Z,1.55555555556
2018-11-21T05:01:26.491Z,1.55555555556
2018-11-21T05:02:36.707Z,1.55555555556
2018-11-21T05:03:46.914Z,1.55555555556
2018-11-21T05:04:57.026Z,1.55555555556
2018-11-21T05:06:07.331Z,1.55555555556
2018-11-21T05:07:17.498Z,1.55555555556
2018-11-21T05:08:27.685Z,1.55555555556
2018-11-21T05:09:37.884Z,1.55555555556
2018-11-21T05:10:47.945Z,1.55555555556
2018-11-21T05:11:58.072Z,1.55555555556
2018-11-21T05:13:08.288Z,1.55555555556
2018-11-21T05:14:18.332Z,1.55555555556
2018-11-21T05:15:28.455Z,1.55555555556
2018-11-21T05:19:09.417Z,1.61111111111
2018-11-21T05:21:48.977Z,1.61111111111
2018-11-21T05:24:28.828Z,1.61111111111
2018-11-21T05:27:08.724Z,1.66666666667
2018-11-21T05:32:28.720Z,1.61111111111
2018-11-21T05:35:08.793Z,1.61111111111
2018-11-21T05:37:48.633Z,1.61111111111
2018-11-21T05:40:28.464Z,1.61111111111
2018-11-21T05:44:09.574Z,1.61111111111
2018-11-21T05:44:49.291Z,1.61111111111
2018-11-21T05:47:09.291Z,1.61111111111
2018-11-21T05:49:49.414Z,1.61111111111
2018-11-21T05:52:29.483Z,1.61111111111
2018-11-21T05:55:09.124Z,1.61111111111
2018-11-21T05:57:49.035Z,1.66666666667
2018-11-21T06:00:28.678Z,1.66666666667
2018-11-21T06:05:49.518Z,1.61111111111
2018-11-21T06:10:09.322Z,1.61111111111
2018-11-21T06:12:49.086Z,1.61111111111
2018-11-21T06:15:48.655Z,1.66666666667
2018-11-21T06:16:11.333Z,1.61111111111
2018-11-21T06:17:39.800Z,1.61111111111
2018-11-21T06:18:41.075Z,1.61111111111
2018-11-21T06:19:51.232Z,1.61111111111
2018-11-21T06:21:01.601Z,1.61111111111
2018-11-21T06:22:11.684Z,1.66666666667
2018-11-21T06:23:21.918Z,1.61111111111
2018-11-21T06:24:32.226Z,1.61111111111
2018-11-21T06:25:42.549Z,1.61111111111
2018-11-21T06:26:52.779Z,1.61111111111
2018-11-21T06:28:02.916Z,1.61111111111
2018-11-21T06:29:13.034Z,1.61111111111
2018-11-21T06:30:23.170Z,1.66666666667
2018-11-21T06:31:33.415Z,1.66666666667
2018-11-21T06:32:43.640Z,1.66666666667
2018-11-21T06:33:53.830Z,1.66666666667
2018-11-21T06:35:04.025Z,1.66666666667
2018-11-21T06:36:14.289Z,1.66666666667
2018-11-21T06:37:24.564Z,1.61111111111
2018-11-21T06:38:34.826Z,1.66666666667
2018-11-21T06:39:44.910Z,1.66666666667
2018-11-21T06:40:55.060Z,1.61111111111
2018-11-21T06:42:05.149Z,1.66666666667
2018-11-21T06:43:15.242Z,1.66666666667
2018-11-21T06:44:25.367Z,1.66666666667
2018-11-21T06:45:35.385Z,1.66666666667
2018-11-21T06:46:45.664Z,1.61111111111
2018-11-21T06:47:55.827Z,1.61111111111
2018-11-21T06:49:06.062Z,1.61111111111
2018-11-21T06:50:16.270Z,1.61111111111
2018-11-21T06:51:26.360Z,1.61111111111
2018-11-21T06:52:27.061Z,1.61111111111
2018-11-21T06:53:19.811Z,1.61111111111
2018-11-21T06:53:55.606Z,1.61111111111
2018-11-21T06:54:56.852Z,1.61111111111
2018-11-21T06:56:06.919Z,1.61111111111
2018-11-21T06:57:17.219Z,1.61111111111
2018-11-21T06:58:27.404Z,1.61111111111
2018-11-21T06:59:37.622Z,1.61111111111
2018-11-21T07:00:47.835Z,1.61111111111
2018-11-21T07:01:58.135Z,1.61111111111
2018-11-21T07:03:08.419Z,1.61111111111
2018-11-21T07:04:18.507Z,1.61111111111
2018-11-21T07:05:28.636Z,1.61111111111
2018-11-21T07:06:38.833Z,1.61111111111
2018-11-21T07:07:49.099Z,1.61111111111
2018-11-21T07:08:59.252Z,1.61111111111
2018-11-21T07:10:09.571Z,1.61111111111
2018-11-21T07:11:19.800Z,1.61111111111
2018-11-21T07:12:30.029Z,1.61111111111
2018-11-21T07:13:40.169Z,1.61111111111
2018-11-21T07:14:50.266Z,1.55555555556
2018-11-21T07:16:00.529Z,1.55555555556
2018-11-21T07:17:10.677Z,1.55555555556
2018-11-21T07:18:20.839Z,1.61111111111
2018-11-21T07:19:30.901Z,1.61111111111
2018-11-21T07:20:41.312Z,1.55555555556
2018-11-21T07:21:51.499Z,1.61111111111
2018-11-21T07:23:01.657Z,1.61111111111
2018-11-21T07:24:11.912Z,1.61111111111
2018-11-21T07:25:22.196Z,1.61111111111
2018-11-21T07:28:02.586Z,1.61111111111
2018-11-21T07:30:42.770Z,1.61111111111
2018-11-21T07:33:23.270Z,1.61111111111
2018-11-21T07:40:02.874Z,1.61111111111
2018-11-21T07:42:42.932Z,1.61111111111
2018-11-21T07:45:23.668Z,1.61111111111
2018-11-21T07:47:42.351Z,1.61111111111
2018-11-21T07:50:22.910Z,1.61111111111
2018-11-21T07:53:02.736Z,1.66666666667
2018-11-21T07:55:42.788Z,1.61111111111
2018-11-21T07:58:23.086Z,1.66666666667
2018-11-21T08:07:03.112Z,1.66666666667
2018-11-21T08:22:02.282Z,1.61111111111
2018-11-21T08:24:42.925Z,1.61111111111
2018-11-21T08:26:02.902Z,1.61111111111
2018-11-21T08:26:44.756Z,1.61111111111
2018-11-21T08:27:07.788Z,1.61111111111
2018-11-21T08:27:43.585Z,1.61111111111
2018-11-21T08:28:44.924Z,1.61111111111
2018-11-21T08:29:55.142Z,1.61111111111
2018-11-21T08:31:05.480Z,1.61111111111
2018-11-21T08:32:15.797Z,1.61111111111
2018-11-21T08:33:26.073Z,1.61111111111
2018-11-21T08:34:27.121Z,1.61111111111
2018-11-21T08:35:20.287Z,1.61111111111
2018-11-21T08:35:56.240Z,1.61111111111
2018-11-21T08:36:57.602Z,1.61111111111
2018-11-21T08:38:07.876Z,1.66666666667
2018-11-21T08:39:18.078Z,1.66666666667
2018-11-21T08:40:28.281Z,1.66666666667
2018-11-21T08:41:38.601Z,1.66666666667
2018-11-21T08:42:48.816Z,1.66666666667
2018-11-21T08:43:59.162Z,1.66666666667
2018-11-21T08:45:09.237Z,1.61111111111
2018-11-21T08:46:19.493Z,1.66666666667
2018-11-21T08:47:29.818Z,1.66666666667
2018-11-21T08:48:40.012Z,1.66666666667
2018-11-21T08:49:50.319Z,1.66666666667
2018-11-21T08:51:00.672Z,1.61111111111
2018-11-21T08:52:10.868Z,1.61111111111
2018-11-21T08:53:21.036Z,1.66666666667
2018-11-21T08:54:31.248Z,1.61111111111
2018-11-21T08:55:41.424Z,1.66666666667
2018-11-21T08:56:51.705Z,1.61111111111
2018-11-21T08:58:01.935Z,1.61111111111
2018-11-21T08:59:12.268Z,1.61111111111
2018-11-21T09:00:22.571Z,1.61111111111
2018-11-21T09:01:33.027Z,1.66666666667
2018-11-21T09:01:55.386Z,1.66666666667
2018-11-21T09:02:58.898Z,1.66666666667
2018-11-21T09:03:21.928Z,1.72222222222
2018-11-21T09:03:57.985Z,1.72222222222
2018-11-21T09:04:59.504Z,1.72222222222
2018-11-21T09:06:09.924Z,1.72222222222
2018-11-21T09:07:20.436Z,1.77777777778
2018-11-21T09:08:30.791Z,1.77777777778
2018-11-21T09:09:41.062Z,1.77777777778
2018-11-21T09:10:51.294Z,1.77777777778
2018-11-21T09:12:01.884Z,1.77777777778
2018-11-21T09:13:53.817Z,1.77777777778
2018-11-21T09:14:29.640Z,1.77777777778
2018-11-21T09:15:31.019Z,1.77777777778
2018-11-21T09:16:41.477Z,1.77777777778
2018-11-21T09:17:51.800Z,1.72222222222
2018-11-21T09:19:02.145Z,1.72222222222
2018-11-21T09:20:12.466Z,1.72222222222
2018-11-21T09:21:22.931Z,1.72222222222
2018-11-21T09:22:33.165Z,1.77777777778
2018-11-21T09:23:43.379Z,1.77777777778
2018-11-21T09:24:53.570Z,1.77777777778
2018-11-21T09:26:03.895Z,1.77777777778
2018-11-21T09:27:14.323Z,1.77777777778
2018-11-21T09:28:24.576Z,1.77777777778
2018-11-21T09:29:34.837Z,1.83333333333
2018-11-21T09:30:45.035Z,1.83333333333
2018-11-21T09:31:55.351Z,1.83333333333
2018-11-21T09:33:05.762Z,1.77777777778
2018-11-21T09:34:16.165Z,1.77777777778
2018-11-21T09:35:26.504Z,1.77777777778
2018-11-21T09:36:36.834Z,1.83333333333
2018-11-21T09:37:47.134Z,1.77777777778
2018-11-21T09:38:57.382Z,1.77777777778
2018-11-21T09:40:07.582Z,1.77777777778
2018-11-21T09:41:17.819Z,1.77777777778
2018-11-21T09:42:28.080Z,1.77777777778
2018-11-21T09:43:38.489Z,1.77777777778
2018-11-21T09:44:48.830Z,1.83333333333
2018-11-21T09:45:59.261Z,1.77777777778
2018-11-21T09:47:09.610Z,1.77777777778
2018-11-21T09:48:19.821Z,1.77777777778
2018-11-21T09:49:29.983Z,1.77777777778
2018-11-21T09:50:40.099Z,1.72222222222
2018-11-21T09:51:50.371Z,1.77777777778
2018-11-21T09:53:00.693Z,1.72222222222
2018-11-21T09:54:10.876Z,1.77777777778
2018-11-21T09:55:21.197Z,1.77777777778
2018-11-21T09:56:31.471Z,1.77777777778
2018-11-21T09:57:41.624Z,1.77777777778
2018-11-21T09:58:52.003Z,1.72222222222
2018-11-21T10:00:02.307Z,1.72222222222
2018-11-21T10:01:12.741Z,1.66666666667
2018-11-21T10:02:23.192Z,1.72222222222
2018-11-21T10:03:33.860Z,1.72222222222
2018-11-21T10:04:44.093Z,1.72222222222
2018-11-21T10:05:54.380Z,1.77777777778
2018-11-21T10:07:04.888Z,1.72222222222
2018-11-21T10:08:15.208Z,1.72222222222
2018-11-21T10:09:25.482Z,1.72222222222
2018-11-21T10:10:35.737Z,1.72222222222
2018-11-21T10:11:46.009Z,1.72222222222
2018-11-21T10:12:56.381Z,1.72222222222
2018-11-21T10:13:18.413Z,1.72222222222
2018-11-21T10:14:22.355Z,1.72222222222
2018-11-21T10:14:45.608Z,1.72222222222
2018-11-21T10:15:21.443Z,1.66666666667
2018-11-21T10:16:22.848Z,1.66666666667
2018-11-21T10:17:33.086Z,1.72222222222
2018-11-21T10:18:43.339Z,1.66666666667
2018-11-21T10:19:53.653Z,1.72222222222
2018-11-21T10:21:03.881Z,1.66666666667
2018-11-21T10:22:14.165Z,1.66666666667
2018-11-21T10:23:24.527Z,1.66666666667
2018-11-21T10:24:34.761Z,1.72222222222
2018-11-21T10:25:45.137Z,1.66666666667
2018-11-21T10:26:55.393Z,1.66666666667
2018-11-21T10:28:05.620Z,1.66666666667
2018-11-21T10:29:15.915Z,1.61111111111
2018-11-21T10:30:26.223Z,1.66666666667
2018-11-21T10:31:36.535Z,1.61111111111
2018-11-21T10:32:46.770Z,1.61111111111
2018-11-21T10:33:56.948Z,1.61111111111
2018-11-21T10:35:07.185Z,1.66666666667
2018-11-21T10:36:17.564Z,1.66666666667
2018-11-21T10:37:27.887Z,1.66666666667
2018-11-21T10:38:38.530Z,1.66666666667
2018-11-21T10:39:48.799Z,1.66666666667
2018-11-21T10:40:59.357Z,1.72222222222
2018-11-21T10:42:09.631Z,1.72222222222
2018-11-21T10:43:19.857Z,1.72222222222
2018-11-21T10:44:30.035Z,1.77777777778
2018-11-21T10:45:40.484Z,1.72222222222
2018-11-21T10:46:50.648Z,1.77777777778
2018-11-21T10:48:00.985Z,1.72222222222
2018-11-21T10:49:11.429Z,1.72222222222
2018-11-21T10:50:21.736Z,1.77777777778
2018-11-21T10:51:32.252Z,1.72222222222
2018-11-21T10:52:42.444Z,1.72222222222
2018-11-21T10:53:52.812Z,1.72222222222
2018-11-21T10:55:03.080Z,1.72222222222
2018-11-21T10:56:13.283Z,1.72222222222
2018-11-21T10:57:23.614Z,1.72222222222
2018-11-21T10:58:33.831Z,1.77777777778
2018-11-21T10:59:44.112Z,1.72222222222
2018-11-21T11:00:54.455Z,1.66666666667
2018-11-21T11:02:04.855Z,1.77777777778
2018-11-21T11:03:15.329Z,1.77777777778
2018-11-21T11:04:25.826Z,1.77777777778
2018-11-21T11:05:36.178Z,1.77777777778
2018-11-21T11:06:46.638Z,1.83333333333
2018-11-21T11:07:56.894Z,1.83333333333
2018-11-21T11:09:07.239Z,1.83333333333
2018-11-21T11:10:17.467Z,1.83333333333
2018-11-21T11:11:27.773Z,1.83333333333
2018-11-21T11:12:37.949Z,1.83333333333
2018-11-21T11:13:48.611Z,1.77777777778
2018-11-21T11:14:58.892Z,1.83333333333
2018-11-21T11:16:09.228Z,1.83333333333
2018-11-21T11:17:19.580Z,1.83333333333
2018-11-21T11:18:29.863Z,1.83333333333
2018-11-21T11:19:40.237Z,1.83333333333
2018-11-21T11:20:50.643Z,1.83333333333
2018-11-21T11:22:00.938Z,1.83333333333
2018-11-21T11:23:11.563Z,1.77777777778
2018-11-21T11:24:22.068Z,1.83333333333
2018-11-21T11:25:32.452Z,1.83333333333
2018-11-21T11:26:42.930Z,1.77777777778
2018-11-21T11:27:53.149Z,1.77777777778
2018-11-21T11:29:03.402Z,1.77777777778
2018-11-21T11:30:13.639Z,1.83333333333
2018-11-21T11:31:23.929Z,1.83333333333
2018-11-21T11:32:34.335Z,1.83333333333
2018-11-21T11:33:44.663Z,1.83333333333
2018-11-21T11:34:54.894Z,1.83333333333
2018-11-21T11:36:05.423Z,1.83333333333
2018-11-21T11:37:15.730Z,1.83333333333
2018-11-21T11:38:25.973Z,1.83333333333
2018-11-21T11:39:36.237Z,1.88888888889
2018-11-21T11:40:46.639Z,1.88888888889
2018-11-21T11:41:56.867Z,1.88888888889
2018-11-21T11:43:07.167Z,1.94444444444
2018-11-21T11:44:17.610Z,1.94444444444
2018-11-21T11:45:28.176Z,1.94444444444
2018-11-21T11:46:38.517Z,1.94444444444
2018-11-21T11:47:48.965Z,1.94444444444
2018-11-21T11:48:59.374Z,1.94444444444
2018-11-21T11:50:09.774Z,1.94444444444
2018-11-21T11:51:20.123Z,1.94444444444
2018-11-21T11:52:30.508Z,1.94444444444
2018-11-21T11:53:40.733Z,1.94444444444
2018-11-21T11:54:51.116Z,1.94444444444
2018-11-21T11:56:01.329Z,2
2018-11-21T11:57:11.810Z,2
2018-11-21T11:58:22.508Z,2
2018-11-21T11:59:32.898Z,2
2018-11-21T12:00:43.205Z,2
2018-11-21T12:01:53.572Z,2
2018-11-21T12:03:04.041Z,2
2018-11-21T12:04:14.568Z,2
2018-11-21T12:05:24.924Z,2
2018-11-21T12:06:35.153Z,2
2018-11-21T12:07:45.444Z,2
2018-11-21T12:08:55.634Z,2
2018-11-21T12:10:05.846Z,2.05555555556
2018-11-21T12:11:16.037Z,2
2018-11-21T12:12:26.394Z,2.05555555556
2018-11-21T12:13:36.763Z,2.05555555556
2018-11-21T12:14:47.120Z,2
2018-11-21T12:15:57.424Z,2
2018-11-21T12:17:07.637Z,2
2018-11-21T12:18:18.005Z,2.05555555556
2018-11-21T12:19:28.286Z,2.05555555556
2018-11-21T12:20:38.608Z,2.05555555556
2018-11-21T12:21:49.087Z,2.05555555556
2018-11-21T12:22:59.418Z,2.05555555556
2018-11-21T12:24:09.844Z,2.05555555556
2018-11-21T12:25:20.196Z,2.05555555556
2018-11-21T12:26:30.731Z,2.05555555556
2018-11-21T12:27:40.939Z,2.05555555556
2018-11-21T12:28:51.240Z,2.05555555556
2018-11-21T12:30:01.582Z,2.11111111111
2018-11-21T12:31:11.929Z,2.11111111111
2018-11-21T12:32:22.300Z,2.05555555556
2018-11-21T12:33:32.533Z,2.05555555556
2018-11-21T12:34:42.891Z,2.11111111111
2018-11-21T12:35:53.186Z,2.05555555556
2018-11-21T12:37:03.546Z,2.05555555556
2018-11-21T12:38:13.816Z,2.11111111111
2018-11-21T12:39:24.276Z,2.11111111111
2018-11-21T12:40:34.568Z,2.11111111111
2018-11-21T12:41:44.962Z,2.11111111111
2018-11-21T12:42:55.382Z,2.11111111111
2018-11-21T12:44:05.712Z,2.11111111111
2018-11-21T12:45:16.121Z,2.11111111111
2018-11-21T12:46:26.370Z,2.16666666667
2018-11-21T12:47:36.768Z,2.16666666667
2018-11-21T12:48:47.069Z,2.16666666667
2018-11-21T12:49:57.330Z,2.16666666667
2018-11-21T12:51:07.739Z,2.16666666667
2018-11-21T12:52:18.014Z,2.22222222222
2018-11-21T12:53:28.163Z,2.22222222222
2018-11-21T12:54:38.476Z,2.22222222222
2018-11-21T12:55:48.794Z,2.16666666667
2018-11-21T12:56:59.307Z,2.16666666667
2018-11-21T12:58:09.664Z,2.22222222222
2018-11-21T12:59:20.033Z,2.22222222222
2018-11-21T13:00:30.337Z,2.22222222222
2018-11-21T13:01:40.705Z,2.22222222222
2018-11-21T13:02:51.086Z,2.22222222222
2018-11-21T13:04:01.506Z,2.22222222222
2018-11-21T13:05:11.924Z,2.22222222222
2018-11-21T13:06:22.312Z,2.27777777778
2018-11-21T13:07:32.785Z,2.27777777778
2018-11-21T13:08:43.131Z,2.27777777778
2018-11-21T13:09:56.631Z,2.27777777778
2018-11-21T13:11:22.085Z,2.27777777778
2018-11-21T13:11:45.103Z,2.27777777778
2018-11-21T13:12:21.009Z,2.27777777778
2018-11-21T13:13:22.407Z,2.27777777778
2018-11-21T13:14:32.688Z,2.27777777778
2018-11-21T13:15:43.609Z,2.22222222222
2018-11-21T13:16:04.880Z,2.22222222222
2018-11-21T13:17:08.197Z,2.22222222222
2018-11-21T13:17:31.315Z,2.16666666667
2018-11-21T13:18:07.221Z,2.22222222222
2018-11-21T13:19:08.698Z,2.22222222222
2018-11-21T13:20:19.152Z,2.22222222222
2018-11-21T13:21:29.345Z,2.22222222222
2018-11-21T13:22:39.746Z,2.16666666667
2018-11-21T13:23:49.956Z,2.16666666667
2018-11-21T13:25:00.315Z,2.16666666667
2018-11-21T13:26:10.724Z,2.16666666667
2018-11-21T13:27:21.234Z,2.16666666667
2018-11-21T13:28:31.486Z,2.16666666667
2018-11-21T13:29:41.708Z,2.16666666667
2018-11-21T13:30:52.048Z,2.16666666667
2018-11-21T13:32:02.382Z,2.16666666667
2018-11-21T13:33:12.740Z,2.16666666667
2018-11-21T13:34:22.977Z,2.16666666667
2018-11-21T13:35:33.348Z,2.11111111111
2018-11-21T13:36:43.562Z,2.11111111111
2018-11-21T13:37:53.990Z,2.05555555556
2018-11-21T13:39:04.412Z,2.11111111111
2018-11-21T13:40:14.803Z,2.05555555556
2018-11-21T13:41:25.075Z,2.05555555556
2018-11-21T13:42:35.329Z,2.05555555556
2018-11-21T13:43:45.577Z,2.05555555556
2018-11-21T13:44:55.765Z,2.05555555556
2018-11-21T13:46:06.119Z,2
2018-11-21T13:47:16.647Z,2.05555555556
2018-11-21T13:48:26.885Z,2
2018-11-21T13:49:37.235Z,2.05555555556
2018-11-21T13:50:47.573Z,2.05555555556
2018-11-21T13:51:57.902Z,2.05555555556
2018-11-21T13:53:08.075Z,2
2018-11-21T13:54:18.395Z,1.94444444444